createdAt,value
2024-02-02T00:01:00.265Z,100598.45
2024-02-02T00:03:27.843Z,100598.08
2024-02-02T00:05:55.680Z,100596.70
2024-02-02T00:08:24.552Z,100600.34
2024-02-02T00:10:52.197Z,100603.14
2024-02-02T00:13:19.860Z,100604.91
2024-02-02T00:15:48.750Z,100606.63
2024-02-02T00:18:16.480Z,100604.59
2024-02-02T00:20:44.593Z,100611.63
2024-02-02T00:23:13.475Z,100610.84
2024-02-02T00:25:41.041Z,100611.16
2024-02-02T00:28:08.593Z,100614.08
2024-02-02T00:30:37.572Z,100615.98
2024-02-02T00:33:05.576Z,100615.95
2024-02-02T00:35:33.430Z,100613.08
2024-02-02T00:38:02.216Z,100608.13
2024-02-02T00:40:30.420Z,100611.17
2024-02-02T00:42:58.050Z,100612.63
2024-02-02T00:45:26.866Z,100613.79
2024-02-02T00:47:54.882Z,100613.13
2024-02-02T00:50:22.681Z,100612.77
2024-02-02T00:52:51.505Z,100613.74
2024-02-02T00:55:19.130Z,100619.19
2024-02-02T00:57:46.743Z,100611.79
2024-02-02T01:00:16.110Z,100609.02
2024-02-02T01:02:43.741Z,100611.89
2024-02-02T01:05:11.395Z,100619.17
2024-02-02T01:07:40.284Z,100616.91
2024-02-02T01:10:07.939Z,100615.29
2024-02-02T01:12:35.628Z,100617.97
2024-02-02T01:15:04.677Z,100621.02
2024-02-02T01:17:32.356Z,100622.90
2024-02-02T01:20:00.089Z,100623.70
2024-02-02T01:22:29.097Z,100619.55
2024-02-02T01:24:56.669Z,100616.64
2024-02-02T01:27:24.374Z,100622.98
2024-02-02T01:29:53.264Z,100625.10
2024-02-02T01:32:21.026Z,100627.55
2024-02-02T01:34:48.850Z,100628.48
2024-02-02T01:37:17.837Z,100625.17
2024-02-02T01:39:45.389Z,100624.14
2024-02-02T01:42:12.985Z,100634.35
2024-02-02T01:44:41.947Z,100633.67
2024-02-02T01:47:09.649Z,100635.25
2024-02-02T01:49:37.601Z,100640.77
2024-02-02T01:52:06.557Z,100637.24
2024-02-02T01:54:34.241Z,100634.23
2024-02-02T01:57:01.881Z,100635.16
2024-02-02T01:59:30.775Z,100633.29
2024-02-02T02:01:58.733Z,100638.09
2024-02-02T02:04:26.459Z,100639.12
2024-02-02T02:06:55.593Z,100636.73
2024-02-02T02:09:23.386Z,100635.80
2024-02-02T02:11:51.077Z,100637.65
2024-02-02T02:14:19.969Z,100641.85
2024-02-02T02:16:47.875Z,100641.92
2024-02-02T02:19:15.755Z,100647.86
2024-02-02T02:21:44.745Z,100643.82
2024-02-02T02:24:13.170Z,100644.18
2024-02-02T02:26:40.877Z,100644.70
2024-02-02T02:29:09.788Z,100645.92
2024-02-02T02:31:37.144Z,100644.48
2024-02-02T02:34:05.030Z,100646.37
2024-02-02T02:36:34.045Z,100643.34
2024-02-02T02:39:01.881Z,100639.30
2024-02-02T02:41:29.518Z,100641.85
2024-02-02T02:43:58.299Z,100639.39
2024-02-02T02:46:25.960Z,100645.85
2024-02-02T02:48:54.078Z,100645.64
2024-02-02T02:51:23.217Z,100648.78
2024-02-02T02:53:50.921Z,100645.29
2024-02-02T02:56:18.453Z,100644.88
2024-02-02T02:58:47.245Z,100640.92
2024-02-02T03:01:14.853Z,100635.42
2024-02-02T03:03:42.620Z,100633.84
2024-02-02T03:06:11.620Z,100635.66
2024-02-02T03:08:39.323Z,100631.02
2024-02-02T03:11:06.992Z,100634.89
2024-02-02T03:13:35.768Z,100636.52
2024-02-02T03:16:03.331Z,100642.23
2024-02-02T03:18:31.339Z,100636.67
2024-02-02T03:21:00.486Z,100638.36
2024-02-02T03:23:28.153Z,100638.23
2024-02-02T03:25:55.716Z,100640.11
2024-02-02T03:28:24.518Z,100639.23
2024-02-02T03:30:52.166Z,100639.19
2024-02-02T03:33:20.261Z,100641.37
2024-02-02T03:35:49.372Z,100644.20
2024-02-02T03:38:17.005Z,100649.45
2024-02-02T03:40:44.518Z,100661.35
2024-02-02T03:43:13.344Z,100664.70
2024-02-02T03:45:41.040Z,100672.96
2024-02-02T03:48:08.669Z,100676.17
2024-02-02T03:50:37.640Z,100676.95
2024-02-02T03:53:05.527Z,100677.69
2024-02-02T03:55:33.171Z,100681.36
2024-02-02T03:58:02.082Z,100685.00
2024-02-02T04:00:30.229Z,100682.27
2024-02-02T04:02:57.929Z,100683.36
2024-02-02T04:05:27.047Z,100680.11
2024-02-02T04:07:54.762Z,100674.81
2024-02-02T04:10:22.328Z,100676.00
2024-02-02T04:12:51.228Z,100681.08
2024-02-02T04:15:19.100Z,100681.88
2024-02-02T04:17:46.769Z,100674.16
2024-02-02T04:20:15.657Z,100679.15
2024-02-02T04:22:43.290Z,100684.52
2024-02-02T04:25:10.852Z,100684.02
2024-02-02T04:27:39.744Z,100680.77
2024-02-02T04:30:07.329Z,100677.92
2024-02-02T04:32:35.203Z,100687.08
2024-02-02T04:35:04.271Z,100686.86
2024-02-02T04:37:32.221Z,100688.58
2024-02-02T04:39:59.780Z,100689.35
2024-02-02T04:42:28.749Z,100690.70
2024-02-02T04:44:56.546Z,100698.41
2024-02-02T04:47:24.295Z,100706.23
2024-02-02T04:49:53.269Z,100705.98
2024-02-02T04:52:20.955Z,100711.37
2024-02-02T04:54:48.609Z,100712.14
2024-02-02T04:57:17.749Z,100713.59
2024-02-02T04:59:45.469Z,100727.33
2024-02-02T05:02:13.143Z,100725.95
2024-02-02T05:04:42.261Z,100725.32
2024-02-02T05:07:09.986Z,100729.96
2024-02-02T05:09:37.696Z,100736.81
2024-02-02T05:12:06.803Z,100741.96
2024-02-02T05:14:34.421Z,100745.08
2024-02-02T05:17:02.075Z,100749.27
2024-02-02T05:19:31.286Z,100746.13
2024-02-02T05:21:58.829Z,100755.63
2024-02-02T05:24:38.486Z,100754.57
2024-02-02T05:27:14.346Z,100751.88
2024-02-02T05:29:42.209Z,100756.67
2024-02-02T05:32:12.198Z,100756.44
2024-02-02T05:34:39.940Z,100746.69
2024-02-02T05:37:07.634Z,100749.73
2024-02-02T05:39:36.441Z,100743.58
2024-02-02T05:42:04.200Z,100742.77
2024-02-02T05:44:31.840Z,100745.31
2024-02-02T05:47:00.619Z,100747.98
2024-02-02T05:49:28.237Z,100740.25
2024-02-02T05:51:56.020Z,100742.23
2024-02-02T05:54:25.177Z,100740.75
2024-02-02T05:56:52.893Z,100738.77
2024-02-02T05:59:20.980Z,100742.91
2024-02-02T06:01:49.767Z,100740.65
2024-02-02T06:04:17.453Z,100740.35
2024-02-02T06:06:45.071Z,100742.98
2024-02-02T06:09:14.097Z,100740.80
2024-02-02T06:11:41.457Z,100738.80
2024-02-02T06:14:09.605Z,100733.49
2024-02-02T06:16:38.396Z,100735.87
2024-02-02T06:19:05.974Z,100737.75
2024-02-02T06:21:33.538Z,100740.08
2024-02-02T06:24:02.845Z,100745.84
2024-02-02T06:26:30.382Z,100747.17
2024-02-02T06:28:57.932Z,100749.96
2024-02-02T06:31:26.728Z,100754.19
2024-02-02T06:33:54.360Z,100756.33
2024-02-02T06:36:22.171Z,100757.60
2024-02-02T06:38:50.834Z,100755.48
2024-02-02T06:41:18.613Z,100754.84
2024-02-02T06:43:46.155Z,100760.27
2024-02-02T06:46:14.980Z,100756.61
2024-02-02T06:48:43.048Z,100759.37
2024-02-02T06:51:10.783Z,100759.82
2024-02-02T06:53:39.661Z,100760.79
2024-02-02T06:56:07.372Z,100756.95
2024-02-02T06:58:35.079Z,100760.75
2024-02-02T07:01:04.069Z,100757.72
2024-02-02T07:03:31.847Z,100758.91
2024-02-02T07:05:59.633Z,100758.20
2024-02-02T07:08:28.717Z,100756.48
2024-02-02T07:10:56.667Z,100756.67
2024-02-02T07:13:24.242Z,100757.92
2024-02-02T07:15:53.226Z,100755.77
2024-02-02T07:18:21.107Z,100748.80
2024-02-02T07:20:48.863Z,100745.40
2024-02-02T07:23:17.738Z,100753.71
2024-02-02T07:25:45.312Z,100754.14
2024-02-02T07:28:12.858Z,100758.61
2024-02-02T07:30:41.681Z,100762.27
2024-02-02T07:33:09.251Z,100761.23
2024-02-02T07:35:37.086Z,100758.19
2024-02-02T07:38:05.990Z,100760.27
2024-02-02T07:40:33.636Z,100766.10
2024-02-02T07:43:01.426Z,100765.15
2024-02-02T07:45:30.400Z,100768.51
2024-02-02T07:47:58.051Z,100770.95
2024-02-02T07:50:26.076Z,100769.98
2024-02-02T07:52:56.331Z,100771.82
2024-02-02T07:55:24.020Z,100772.81
2024-02-02T07:57:52.996Z,100773.50
2024-02-02T08:00:20.669Z,100773.38
2024-02-02T08:02:48.310Z,100775.61
2024-02-02T08:05:17.195Z,100778.45
2024-02-02T08:07:44.761Z,100778.60
2024-02-02T08:10:12.419Z,100779.86
2024-02-02T08:12:41.639Z,100778.27
2024-02-02T08:15:09.440Z,100780.14
2024-02-02T08:17:37.071Z,100782.09
2024-02-02T08:20:05.894Z,100777.92
2024-02-02T08:22:33.482Z,100776.02
2024-02-02T08:25:01.048Z,100774.73
2024-02-02T08:27:29.830Z,100775.55
2024-02-02T08:29:57.523Z,100777.08
2024-02-02T08:32:25.277Z,100771.88
2024-02-02T08:34:54.561Z,100772.30
2024-02-02T08:37:22.117Z,100770.64
2024-02-02T08:39:50.090Z,100769.71
2024-02-02T08:42:18.950Z,100771.65
2024-02-02T08:44:47.048Z,100771.49
2024-02-02T08:47:14.607Z,100768.60
2024-02-02T08:49:43.548Z,100767.49
2024-02-02T08:52:11.461Z,100768.56
2024-02-02T08:54:39.139Z,100774.52
2024-02-02T08:57:08.034Z,100772.11
2024-02-02T08:59:35.675Z,100771.85
2024-02-02T09:02:03.241Z,100771.77
2024-02-02T09:04:32.220Z,100768.23
2024-02-02T09:06:59.978Z,100765.21
2024-02-02T09:09:27.761Z,100770.70
2024-02-02T09:11:56.586Z,100772.68
2024-02-02T09:16:52.390Z,100769.96
2024-02-02T09:19:21.238Z,100767.40
2024-02-02T09:21:49.030Z,100758.77
2024-02-02T09:24:16.701Z,100762.48
2024-02-02T09:26:45.682Z,100756.80
2024-02-02T09:29:13.126Z,100756.59
2024-02-02T09:31:40.496Z,100754.76
2024-02-02T09:34:09.558Z,100747.87
2024-02-02T09:36:37.530Z,100748.50
2024-02-02T09:39:05.248Z,100745.81
2024-02-02T09:41:34.109Z,100743.27
2024-02-02T09:44:01.686Z,100744.85
2024-02-02T09:46:29.537Z,100741.73
2024-02-02T09:48:58.548Z,100746.15
2024-02-02T09:51:26.447Z,100733.80
2024-02-02T09:53:54.341Z,100739.13
2024-02-02T09:56:23.203Z,100742.92
2024-02-02T09:58:50.827Z,100740.73
2024-02-02T10:01:18.716Z,100748.86
2024-02-02T10:03:47.685Z,100744.70
2024-02-02T10:06:15.414Z,100743.67
2024-02-02T10:08:43.300Z,100745.75
2024-02-02T10:11:12.090Z,100737.80
2024-02-02T10:13:39.758Z,100736.02
2024-02-02T10:16:07.315Z,100729.77
2024-02-02T10:18:36.318Z,100728.22
2024-02-02T10:21:05.736Z,100725.81
2024-02-02T10:23:34.913Z,100721.38
2024-02-02T10:26:02.497Z,100719.59
2024-02-02T10:28:30.340Z,100717.40
2024-02-02T10:30:59.325Z,100716.34
2024-02-02T10:33:27.228Z,100718.17
2024-02-02T10:35:54.979Z,100710.63
2024-02-02T10:38:23.949Z,100711.92
2024-02-02T10:40:51.604Z,100713.42
2024-02-02T10:43:19.269Z,100709.54
2024-02-02T10:45:48.121Z,100706.70
2024-02-02T10:48:16.769Z,100704.42
2024-02-02T10:50:46.960Z,100699.33
2024-02-02T10:53:14.511Z,100692.77
2024-02-02T10:55:42.184Z,100693.21
2024-02-02T10:58:10.978Z,100697.54
2024-02-02T11:00:38.722Z,100699.30
2024-02-02T11:03:06.482Z,100691.15
2024-02-02T11:05:35.409Z,100682.30
2024-02-02T11:08:03.163Z,100672.73
2024-02-02T11:10:30.820Z,100663.37
2024-02-02T11:12:59.509Z,100658.04
2024-02-02T11:15:27.059Z,100653.11
2024-02-02T11:17:55.015Z,100651.95
2024-02-02T11:20:24.118Z,100644.29
2024-02-02T11:22:51.978Z,100636.63
2024-02-02T11:25:19.672Z,100625.55
2024-02-02T11:27:48.446Z,100628.39
2024-02-02T11:30:15.888Z,100626.70
2024-02-02T11:32:43.503Z,100626.38
2024-02-02T11:35:12.293Z,100627.45
2024-02-02T11:37:39.786Z,100614.97
2024-02-02T11:40:07.265Z,100608.20
2024-02-02T11:42:36.538Z,100615.91
2024-02-02T11:45:04.220Z,100615.38
2024-02-02T11:47:34.016Z,100609.39
2024-02-02T11:50:01.692Z,100606.91
2024-02-02T11:52:29.452Z,100597.77
2024-02-02T11:54:58.235Z,100597.30
2024-02-02T11:57:26.322Z,100596.38
2024-02-02T11:59:54.788Z,100597.88
2024-02-02T12:02:24.293Z,100599.83
2024-02-02T12:04:51.927Z,100597.59
2024-02-02T12:07:19.892Z,100589.92
2024-02-02T12:09:48.920Z,100582.84
2024-02-02T12:12:16.533Z,100579.19
2024-02-02T12:14:44.453Z,100580.94
2024-02-02T12:17:13.356Z,100575.04
2024-02-02T12:19:41.013Z,100573.89
2024-02-02T12:22:08.858Z,100573.30
2024-02-02T12:24:38.124Z,100572.06
2024-02-02T12:27:05.830Z,100575.89
2024-02-02T12:29:33.479Z,100570.14
2024-02-02T12:32:02.192Z,100557.77
2024-02-02T12:34:29.738Z,100553.11
2024-02-02T12:36:57.424Z,100549.01
2024-02-02T12:39:26.362Z,100546.33
2024-02-02T12:41:54.041Z,100543.80
2024-02-02T12:44:22.014Z,100540.90
2024-02-02T12:46:50.804Z,100538.14
2024-02-02T12:49:18.614Z,100531.84
2024-02-02T12:51:46.165Z,100534.09
2024-02-02T12:54:15.049Z,100533.20
2024-02-02T12:56:42.573Z,100529.42
2024-02-02T12:59:10.092Z,100530.47
2024-02-02T13:01:38.858Z,100526.55
2024-02-02T13:04:06.616Z,100523.98
2024-02-02T13:06:34.172Z,100521.38
2024-02-02T13:09:03.547Z,100516.87
2024-02-02T13:11:31.203Z,100520.80
2024-02-02T13:13:58.859Z,100521.49
2024-02-02T13:16:27.650Z,100520.98
2024-02-02T13:18:55.483Z,100525.84
2024-02-02T13:21:26.641Z,100527.23
2024-02-02T13:23:55.582Z,100534.58
2024-02-02T13:26:23.014Z,100534.48
2024-02-02T13:28:50.650Z,100535.06
2024-02-02T13:31:19.583Z,100539.33
2024-02-02T13:33:48.014Z,100539.63
2024-02-02T13:36:18.401Z,100533.31
2024-02-02T13:38:46.046Z,100529.67
2024-02-02T13:41:13.493Z,100522.68
2024-02-02T13:43:42.175Z,100519.04
2024-02-02T13:46:09.730Z,100513.45
2024-02-02T13:48:37.386Z,100505.61
2024-02-02T13:51:06.308Z,100502.91
2024-02-02T13:53:34.449Z,100501.96
2024-02-02T13:56:02.184Z,100497.44
2024-02-02T13:58:31.113Z,100488.98
2024-02-02T14:00:58.715Z,100482.71
2024-02-02T14:03:26.402Z,100477.44
2024-02-02T14:05:55.434Z,100469.88
2024-02-02T14:08:22.890Z,100461.21
2024-02-02T14:10:50.361Z,100452.20
2024-02-02T14:13:19.226Z,100445.39
2024-02-02T14:15:47.181Z,100435.23
2024-02-02T14:18:14.831Z,100427.60
2024-02-02T14:20:43.736Z,100432.63
2024-02-02T14:23:11.411Z,100433.36
2024-02-02T14:25:38.956Z,100437.15
2024-02-02T14:28:07.753Z,100438.56
2024-02-02T14:30:35.356Z,100437.92
2024-02-02T14:33:13.901Z,100434.77
2024-02-02T14:35:51.033Z,100434.91
2024-02-02T14:38:18.685Z,100435.44
2024-02-02T14:40:46.219Z,100435.41
2024-02-02T14:43:15.121Z,100420.81
2024-02-02T14:45:42.690Z,100420.22
2024-02-02T14:48:10.527Z,100413.58
2024-02-02T14:50:39.530Z,100396.63
2024-02-02T14:53:07.509Z,100393.20
2024-02-02T14:55:35.157Z,100378.19
2024-02-02T14:58:03.945Z,100373.08
2024-02-02T15:00:31.763Z,100374.85
2024-02-02T15:02:59.700Z,100372.84
2024-02-02T15:05:28.704Z,100370.68
2024-02-02T15:07:56.443Z,100365.28
2024-02-02T15:10:24.001Z,100364.86
2024-02-02T15:12:52.700Z,100362.66
2024-02-02T15:15:20.546Z,100362.16
2024-02-02T15:17:48.255Z,100362.74
2024-02-02T15:20:17.193Z,100364.77
2024-02-02T15:22:44.769Z,100374.94
2024-02-02T15:25:12.437Z,100379.88
2024-02-02T15:27:41.331Z,100380.77
2024-02-02T15:30:08.834Z,100376.98
2024-02-02T15:32:36.429Z,100371.16
2024-02-02T15:35:05.422Z,100370.33
2024-02-02T15:37:33.602Z,100370.55
2024-02-02T15:40:03.864Z,100373.63
2024-02-02T15:42:34.227Z,100366.38
2024-02-02T15:45:04.494Z,100368.28
2024-02-02T15:47:31.986Z,100373.19
2024-02-02T15:49:59.768Z,100361.55
2024-02-02T15:52:28.785Z,100352.74
2024-02-02T15:54:56.748Z,100354.08
2024-02-02T15:57:24.417Z,100361.23
2024-02-02T15:59:53.500Z,100356.36
2024-02-02T16:02:21.067Z,100345.11
2024-02-02T16:04:48.656Z,100335.89
2024-02-02T16:07:17.655Z,100331.79
2024-02-02T16:09:45.432Z,100334.02
2024-02-02T16:12:13.134Z,100325.31
2024-02-02T16:14:42.235Z,100320.51
2024-02-02T16:17:10.086Z,100318.27
2024-02-02T16:19:37.767Z,100310.95
2024-02-02T16:22:06.754Z,100312.37
2024-02-02T16:24:34.515Z,100306.74
2024-02-02T16:27:02.320Z,100303.98
2024-02-02T16:29:31.190Z,100304.52
2024-02-02T16:31:58.855Z,100299.84
2024-02-02T16:34:26.506Z,100296.77
2024-02-02T16:36:55.519Z,100291.80
2024-02-02T16:39:23.083Z,100293.48
2024-02-02T16:41:50.491Z,100284.92
2024-02-02T16:44:19.212Z,100281.13
2024-02-02T16:46:46.676Z,100275.64
2024-02-02T16:49:14.266Z,100268.34
2024-02-02T16:51:43.218Z,100261.41
2024-02-02T16:54:11.480Z,100255.93
2024-02-02T16:56:39.141Z,100252.67
2024-02-02T16:59:08.033Z,100252.13
2024-02-02T17:01:35.626Z,100248.36
2024-02-02T17:04:03.498Z,100247.27
2024-02-02T17:06:32.533Z,100246.06
2024-02-02T17:09:00.303Z,100245.71
2024-02-02T17:11:28.076Z,100241.36
2024-02-02T17:13:56.876Z,100239.20
2024-02-02T17:16:24.417Z,100241.71
2024-02-02T17:18:52.062Z,100233.41
2024-02-02T17:21:21.318Z,100227.31
2024-02-02T17:23:48.945Z,100225.88
2024-02-02T17:26:16.409Z,100217.36
2024-02-02T17:28:45.298Z,100219.54
2024-02-02T17:31:12.862Z,100217.91
2024-02-02T17:33:40.648Z,100208.30
2024-02-02T17:36:09.947Z,100204.85
2024-02-02T17:38:37.672Z,100207.45
2024-02-02T17:41:05.227Z,100197.85
2024-02-02T17:43:34.124Z,100188.98
2024-02-02T17:46:01.676Z,100186.59
2024-02-02T17:48:29.441Z,100184.17
2024-02-02T17:50:58.467Z,100179.74
2024-02-02T17:53:25.894Z,100176.21
2024-02-02T17:55:53.555Z,100179.08
2024-02-02T17:58:22.435Z,100177.94
2024-02-02T18:00:50.051Z,100170.95
2024-02-02T18:03:18.126Z,100171.64
2024-02-02T18:05:46.877Z,100170.37
2024-02-02T18:08:14.452Z,100164.05
2024-02-02T18:10:42.103Z,100168.34
2024-02-02T18:13:10.972Z,100170.04
2024-02-02T18:15:38.708Z,100170.70
2024-02-02T18:18:06.469Z,100162.27
2024-02-02T18:20:35.319Z,100161.83
2024-02-02T18:23:02.936Z,100150.54
2024-02-02T18:25:30.920Z,100146.89
2024-02-02T18:27:59.694Z,100143.52
2024-02-02T18:30:27.325Z,100132.39
2024-02-02T18:32:55.059Z,100124.48
2024-02-02T18:35:24.079Z,100113.08
2024-02-02T18:37:51.682Z,100107.12
2024-02-02T18:40:19.246Z,100105.88
2024-02-02T18:42:48.248Z,100095.27
2024-02-02T18:45:16.445Z,100090.71
2024-02-02T18:47:43.987Z,100085.96
2024-02-02T18:50:13.074Z,100082.05
2024-02-02T18:52:40.615Z,100076.97
2024-02-02T18:55:08.379Z,100067.55
2024-02-02T18:57:37.370Z,100064.30
2024-02-02T19:00:04.998Z,100062.65
2024-02-02T19:02:32.713Z,100055.41
2024-02-02T19:05:02.068Z,100048.85
2024-02-02T19:07:29.984Z,100039.87
2024-02-02T19:09:59.976Z,100035.02
2024-02-02T19:12:27.747Z,100035.13
2024-02-02T19:14:55.410Z,100034.78
2024-02-02T19:17:24.212Z,100021.76
2024-02-02T19:19:52.005Z,100020.11
2024-02-02T19:22:19.836Z,100020.92
2024-02-02T19:24:48.691Z,100023.24
2024-02-02T19:27:16.708Z,100018.98
2024-02-02T19:29:44.340Z,100024.39
2024-02-02T19:32:13.192Z,100023.83
2024-02-02T19:34:40.830Z,100019.73
2024-02-02T19:37:08.560Z,100018.92
2024-02-02T19:39:37.514Z,100019.53
2024-02-02T19:42:05.352Z,100028.82
2024-02-02T19:44:32.868Z,100037.10
2024-02-02T19:47:02.126Z,100025.33
2024-02-02T19:49:29.807Z,100022.23
2024-02-02T19:51:57.677Z,100028.89
2024-02-02T19:54:26.712Z,100035.77
2024-02-02T19:56:54.159Z,100026.81
2024-02-02T19:59:21.754Z,100015.48
2024-02-02T20:01:50.459Z,100009.30
2024-02-02T20:04:18.160Z,99998.98
2024-02-02T20:06:46.110Z,100001.54
2024-02-02T20:09:15.454Z,99989.84
2024-02-02T20:11:42.872Z,99988.66
2024-02-02T20:14:10.440Z,99994.54
2024-02-02T20:16:39.331Z,99994.02
2024-02-02T20:19:07.087Z,99990.32
2024-02-02T20:21:34.869Z,99985.45
2024-02-02T20:24:03.773Z,99985.27
2024-02-02T20:26:31.409Z,99984.33
2024-02-02T20:28:59.072Z,99983.48
2024-02-02T20:31:27.956Z,99986.52
2024-02-02T20:33:56.066Z,99984.74
2024-02-02T20:36:24.150Z,99986.17
2024-02-02T20:38:53.198Z,99990.48
2024-02-02T20:41:20.755Z,99984.44
2024-02-02T20:43:48.413Z,99989.71
2024-02-02T20:46:17.307Z,99988.05
2024-02-02T20:48:44.941Z,99992.23
2024-02-02T20:51:15.037Z,99989.61
2024-02-02T20:53:46.339Z,99993.65
2024-02-02T20:56:13.903Z,99987.34
2024-02-02T20:58:41.452Z,99984.51
2024-02-02T21:01:10.316Z,99982.17
2024-02-02T21:03:37.852Z,99986.39
2024-02-02T21:06:05.810Z,99986.75
2024-02-02T21:08:34.751Z,99980.59
2024-02-02T21:11:02.236Z,99981.98
2024-02-02T21:13:29.869Z,99982.26
2024-02-02T21:15:59.103Z,99980.65
2024-02-02T21:18:26.825Z,99982.34
2024-02-02T21:20:54.593Z,99990.50
2024-02-02T21:23:23.332Z,99987.70
2024-02-02T21:25:50.940Z,99981.56
2024-02-02T21:28:18.446Z,99979.77
2024-02-02T21:30:47.710Z,99975.26
2024-02-02T21:33:18.702Z,99971.19
2024-02-02T21:35:50.493Z,99975.56
2024-02-02T21:38:18.366Z,99978.38
2024-02-02T21:40:46.020Z,99977.45
2024-02-02T21:43:14.807Z,99976.38
2024-02-02T21:45:42.440Z,99969.84
2024-02-02T21:48:10.378Z,99971.83
2024-02-02T21:50:39.332Z,99972.56
2024-02-02T21:53:06.741Z,99966.61
2024-02-02T21:55:34.344Z,99968.90
2024-02-02T21:58:03.540Z,99965.88
2024-02-02T22:00:31.358Z,99958.74
2024-02-02T22:02:59.169Z,99961.20
2024-02-02T22:05:27.974Z,99962.20
2024-02-02T22:07:55.516Z,99960.21
2024-02-02T22:10:23.085Z,99959.32
2024-02-02T22:12:51.980Z,99954.35
2024-02-02T22:15:19.543Z,99950.85
2024-02-02T22:17:47.218Z,99952.89
2024-02-02T22:20:16.484Z,99947.62
2024-02-02T22:22:43.958Z,99936.32
2024-02-02T22:25:11.498Z,99938.30
2024-02-02T22:27:40.365Z,99941.45
2024-02-02T22:30:08.076Z,99942.91
2024-02-02T22:32:36.611Z,99950.98
2024-02-02T22:35:05.644Z,99944.14
2024-02-02T22:37:33.298Z,99942.43
2024-02-02T22:40:01.179Z,99940.83
2024-02-02T22:42:30.062Z,99936.38
2024-02-02T22:44:57.603Z,99933.80
2024-02-02T22:47:25.263Z,99932.23
2024-02-02T22:49:54.074Z,99927.38
2024-02-02T22:52:21.614Z,99929.73
2024-02-02T22:54:49.343Z,99927.80
2024-02-02T22:57:18.215Z,99930.38
2024-02-02T22:59:53.190Z,99932.00
2024-02-02T23:02:27.470Z,99929.05
2024-02-02T23:04:55.290Z,99921.42
2024-02-02T23:07:22.920Z,99916.41
2024-02-02T23:09:51.972Z,99916.18
2024-02-02T23:12:19.535Z,99911.63
2024-02-02T23:14:47.026Z,99908.85
2024-02-02T23:17:15.839Z,99903.95
2024-02-02T23:19:45.166Z,99899.70
2024-02-02T23:22:14.337Z,99895.98
2024-02-02T23:24:42.082Z,99889.70
2024-02-02T23:27:09.799Z,99890.67
2024-02-02T23:29:38.655Z,99889.98
2024-02-02T23:32:06.235Z,99886.92
2024-02-02T23:34:34.032Z,99890.31
2024-02-02T23:37:02.871Z,99896.98
2024-02-02T23:39:30.800Z,99895.27
2024-02-02T23:41:58.593Z,99895.23
2024-02-02T23:44:27.389Z,99887.63
2024-02-02T23:46:55.049Z,99888.73
2024-02-02T23:49:22.719Z,99882.09
2024-02-02T23:51:51.426Z,99880.60
2024-02-02T23:54:19.194Z,99873.09
2024-02-02T23:56:46.921Z,99873.27
2024-02-02T23:59:15.697Z,99875.06
